sensor_id;sensor_type;location;lat;lon;timestamp;temperature;humidity
40756;DHT22;26461;45.630;9.418;2022-08-07T13:12:18;29.10;88.00
40756;DHT22;26461;45.630;9.418;2022-08-07T13:22:38;29.30;88.60
40756;DHT22;26461;45.630;9.418;2022-08-07T13:25:55;29.40;88.30
40756;DHT22;26461;45.630;9.418;2022-08-07T13:29:15;29.50;88.40
40756;DHT22;26461;45.630;9.418;2022-08-07T13:32:37;29.60;87.40
40756;DHT22;26461;45.630;9.418;2022-08-07T13:35:51;29.60;86.90
40756;DHT22;26461;45.630;9.418;2022-08-07T13:39:14;29.60;86.20
40756;DHT22;26461;45.630;9.418;2022-08-07T13:42:24;29.70;85.30
40756;DHT22;26461;45.630;9.418;2022-08-07T13:45:34;29.70;84.30
40756;DHT22;26461;45.630;9.418;2022-08-07T13:48:51;29.70;84.70
40756;DHT22;26461;45.630;9.418;2022-08-07T13:52:05;29.70;84.70
40756;DHT22;26461;45.630;9.418;2022-08-07T13:55:13;29.80;84.60
40756;DHT22;26461;45.630;9.418;2022-08-07T13:58:25;29.80;83.30
40756;DHT22;26461;45.630;9.418;2022-08-07T14:01:58;29.90;82.40
40756;DHT22;26461;45.630;9.418;2022-08-07T14:05:20;30.00;81.80
40756;DHT22;26461;45.630;9.418;2022-08-07T14:08:33;30.10;82.00
40756;DHT22;26461;45.630;9.418;2022-08-07T14:11:49;30.20;81.60
40756;DHT22;26461;45.630;9.418;2022-08-07T14:15:04;30.30;81.80
40756;DHT22;26461;45.630;9.418;2022-08-07T14:21:32;30.50;82.00
40756;DHT22;26461;45.630;9.418;2022-08-07T14:24:47;30.60;80.40
40756;DHT22;26461;45.630;9.418;2022-08-07T14:28:03;30.70;79.90
40756;DHT22;26461;45.630;9.418;2022-08-07T14:31:11;30.80;79.80
40756;DHT22;26461;45.630;9.418;2022-08-07T14:34:17;30.90;78.90
40756;DHT22;26461;45.630;9.418;2022-08-07T14:37:31;31.00;78.20
40756;DHT22;26461;45.630;9.418;2022-08-07T14:40:42;31.00;77.20
40756;DHT22;26461;45.630;9.418;2022-08-07T14:43:48;31.10;76.80
40756;DHT22;26461;45.630;9.418;2022-08-07T14:47:01;31.10;77.00
40756;DHT22;26461;45.630;9.418;2022-08-07T14:50:12;31.20;76.20
40756;DHT22;26461;45.630;9.418;2022-08-07T14:53:24;31.30;75.20
40756;DHT22;26461;45.630;9.418;2022-08-07T14:56:31;31.30;74.70
40756;DHT22;26461;45.630;9.418;2022-08-07T14:59:43;31.30;74.30
40756;DHT22;26461;45.630;9.418;2022-08-07T15:02:53;31.30;74.50
40756;DHT22;26461;45.630;9.418;2022-08-07T15:06:06;31.30;73.80
40756;DHT22;26461;45.630;9.418;2022-08-07T15:09:18;31.30;72.90
40756;DHT22;26461;45.630;9.418;2022-08-07T15:12:35;31.40;71.80
40756;DHT22;26461;45.630;9.418;2022-08-07T15:15:52;31.40;72.10
40756;DHT22;26461;45.630;9.418;2022-08-07T15:19:09;31.40;71.70
40756;DHT22;26461;45.630;9.418;2022-08-07T15:22:29;31.50;71.30
40756;DHT22;26461;45.630;9.418;2022-08-07T15:25:46;31.50;70.60
40756;DHT22;26461;45.630;9.418;2022-08-07T15:28:55;31.50;70.50
40756;DHT22;26461;45.630;9.418;2022-08-07T15:32:06;31.60;70.60
40756;DHT22;26461;45.630;9.418;2022-08-07T15:35:20;31.70;69.20
40756;DHT22;26461;45.630;9.418;2022-08-07T15:38:32;31.70;69.00
40756;DHT22;26461;45.630;9.418;2022-08-07T15:41:59;31.80;68.10
40756;DHT22;26461;45.630;9.418;2022-08-07T15:45:05;31.70;67.20
40756;DHT22;26461;45.630;9.418;2022-08-07T15:48:29;31.70;66.40
40756;DHT22;26461;45.630;9.418;2022-08-07T15:51:45;31.70;67.00
40756;DHT22;26461;45.630;9.418;2022-08-07T15:54:57;31.70;65.60
40756;DHT22;26461;45.630;9.418;2022-08-07T15:58:08;31.60;66.10
40756;DHT22;26461;45.630;9.418;2022-08-07T16:01:22;31.50;66.20
40756;DHT22;26461;45.630;9.418;2022-08-07T16:04:36;31.50;65.20
40756;DHT22;26461;45.630;9.418;2022-08-07T16:07:57;31.30;66.30
40756;DHT22;26461;45.630;9.418;2022-08-07T16:11:34;31.20;66.80
40756;DHT22;26461;45.630;9.418;2022-08-07T16:28:53;30.70;68.90
40756;DHT22;26461;45.630;9.418;2022-08-07T16:32:07;30.70;70.50
40756;DHT22;26461;45.630;9.418;2022-08-07T16:35:23;30.70;70.90
40756;DHT22;26461;45.630;9.418;2022-08-07T16:38:58;30.60;71.00
40756;DHT22;26461;45.630;9.418;2022-08-07T16:45:50;30.50;69.90
40756;DHT22;26461;45.630;9.418;2022-08-07T16:49:30;30.50;70.20
40756;DHT22;26461;45.630;9.418;2022-08-07T16:53:00;30.50;70.90
40756;DHT22;26461;45.630;9.418;2022-08-07T17:00:04;30.40;69.90
40756;DHT22;26461;45.630;9.418;2022-08-07T17:03:14;30.40;71.50
40756;DHT22;26461;45.630;9.418;2022-08-07T17:10:02;30.40;71.10
40756;DHT22;26461;45.630;9.418;2022-08-07T17:16:50;30.40;71.60
40756;DHT22;26461;45.630;9.418;2022-08-07T17:19:59;30.40;70.50
40756;DHT22;26461;45.630;9.418;2022-08-07T17:26:43;30.20;70.70
40756;DHT22;26461;45.630;9.418;2022-08-07T17:33:34;30.10;71.20
40756;DHT22;26461;45.630;9.418;2022-08-07T17:36:50;30.10;72.30
40756;DHT22;26461;45.630;9.418;2022-08-07T17:40:05;30.10;72.40
40756;DHT22;26461;45.630;9.418;2022-08-07T17:43:27;30.10;72.70
40756;DHT22;26461;45.630;9.418;2022-08-07T17:46:58;30.00;72.70
40756;DHT22;26461;45.630;9.418;2022-08-07T17:50:19;30.00;72.70
40756;DHT22;26461;45.630;9.418;2022-08-07T17:53:40;30.00;73.20
40756;DHT22;26461;45.630;9.418;2022-08-07T17:57:05;29.90;74.10
40756;DHT22;26461;45.630;9.418;2022-08-07T18:00:20;29.80;74.00
40756;DHT22;26461;45.630;9.418;2022-08-07T18:03:46;29.80;73.50
40756;DHT22;26461;45.630;9.418;2022-08-07T18:07:00;29.80;74.30
40756;DHT22;26461;45.630;9.418;2022-08-07T18:10:22;29.80;75.00
40756;DHT22;26461;45.630;9.418;2022-08-07T18:13:53;29.70;74.00
40756;DHT22;26461;45.630;9.418;2022-08-07T18:17:21;29.70;75.80
40756;DHT22;26461;45.630;9.418;2022-08-07T18:20:42;29.70;75.00
40756;DHT22;26461;45.630;9.418;2022-08-07T18:24:20;29.60;74.00
40756;DHT22;26461;45.630;9.418;2022-08-07T18:31:22;29.60;73.50
40756;DHT22;26461;45.630;9.418;2022-08-07T18:38:48;29.20;74.00
40756;DHT22;26461;45.630;9.418;2022-08-07T18:45:08;28.80;69.10
40756;DHT22;26461;45.630;9.418;2022-08-07T18:48:26;28.60;66.80
40756;DHT22;26461;45.630;9.418;2022-08-07T18:59:02;28.20;67.10
40756;DHT22;26461;45.630;9.418;2022-08-07T19:02:52;28.20;67.90
40756;DHT22;26461;45.630;9.418;2022-08-07T19:06:12;28.20;68.30
40756;DHT22;26461;45.630;9.418;2022-08-07T19:09:52;28.20;68.60
40756;DHT22;26461;45.630;9.418;2022-08-07T19:13:22;28.10;68.80
40756;DHT22;26461;45.630;9.418;2022-08-07T19:16:40;28.10;69.70
40756;DHT22;26461;45.630;9.418;2022-08-07T19:20:06;28.10;70.60
40756;DHT22;26461;45.630;9.418;2022-08-07T19:23:52;28.10;71.20
40756;DHT22;26461;45.630;9.418;2022-08-07T19:27:06;28.10;71.80
40756;DHT22;26461;45.630;9.418;2022-08-07T19:30:13;28.00;72.00
40756;DHT22;26461;45.630;9.418;2022-08-07T19:33:24;28.00;72.40
40756;DHT22;26461;45.630;9.418;2022-08-07T19:36:40;28.00;72.60
40756;DHT22;26461;45.630;9.418;2022-08-07T19:39:58;28.00;72.60
40756;DHT22;26461;45.630;9.418;2022-08-07T19:43:22;27.90;72.60
40756;DHT22;26461;45.630;9.418;2022-08-07T19:46:37;27.90;72.60
40756;DHT22;26461;45.630;9.418;2022-08-07T19:49:49;27.90;72.50
40756;DHT22;26461;45.630;9.418;2022-08-07T19:53:09;27.80;72.90
40756;DHT22;26461;45.630;9.418;2022-08-07T19:56:21;27.70;73.10
40756;DHT22;26461;45.630;9.418;2022-08-07T19:59:35;27.70;74.00
40756;DHT22;26461;45.630;9.418;2022-08-07T20:02:50;27.60;73.00
40756;DHT22;26461;45.630;9.418;2022-08-07T20:06:04;27.60;72.90
40756;DHT22;26461;45.630;9.418;2022-08-07T20:09:14;27.50;72.90
40756;DHT22;26461;45.630;9.418;2022-08-07T20:12:25;27.50;73.30
40756;DHT22;26461;45.630;9.418;2022-08-07T20:15:37;27.40;73.10
40756;DHT22;26461;45.630;9.418;2022-08-07T20:18:47;27.40;73.00
40756;DHT22;26461;45.630;9.418;2022-08-07T20:21:57;27.30;72.80
40756;DHT22;26461;45.630;9.418;2022-08-07T20:25:08;27.30;72.50
40756;DHT22;26461;45.630;9.418;2022-08-07T20:28:19;27.20;72.40
40756;DHT22;26461;45.630;9.418;2022-08-07T20:31:31;27.20;72.30
40756;DHT22;26461;45.630;9.418;2022-08-07T20:34:38;27.20;72.40
40756;DHT22;26461;45.630;9.418;2022-08-07T20:37:50;27.20;72.50
40756;DHT22;26461;45.630;9.418;2022-08-07T20:41:03;27.20;72.30
40756;DHT22;26461;45.630;9.418;2022-08-07T20:44:14;27.20;72.10
40756;DHT22;26461;45.630;9.418;2022-08-07T20:47:26;27.20;71.80
40756;DHT22;26461;45.630;9.418;2022-08-07T20:50:38;27.20;71.80
40756;DHT22;26461;45.630;9.418;2022-08-07T20:53:49;27.20;71.80
40756;DHT22;26461;45.630;9.418;2022-08-07T20:57:03;27.20;72.10
40756;DHT22;26461;45.630;9.418;2022-08-07T21:00:15;27.10;72.90
40756;DHT22;26461;45.630;9.418;2022-08-07T21:03:32;27.10;74.30
40756;DHT22;26461;45.630;9.418;2022-08-07T21:06:46;27.10;74.40
40756;DHT22;26461;45.630;9.418;2022-08-07T21:09:59;27.00;74.50
40756;DHT22;26461;45.630;9.418;2022-08-07T21:13:13;27.00;75.30
40756;DHT22;26461;45.630;9.418;2022-08-07T21:16:51;27.00;75.80
40756;DHT22;26461;45.630;9.418;2022-08-07T21:20:09;26.90;76.60
40756;DHT22;26461;45.630;9.418;2022-08-07T21:23:49;26.80;77.90
40756;DHT22;26461;45.630;9.418;2022-08-07T21:27:41;26.70;78.20
40756;DHT22;26461;45.630;9.418;2022-08-07T21:31:10;26.30;79.00
40756;DHT22;26461;45.630;9.418;2022-08-07T21:34:39;26.10;78.00
40756;DHT22;26461;45.630;9.418;2022-08-07T21:45:16;25.80;78.60
40756;DHT22;26461;45.630;9.418;2022-08-07T21:48:36;25.70;79.10
40756;DHT22;26461;45.630;9.418;2022-08-07T21:52:12;25.50;80.40
40756;DHT22;26461;45.630;9.418;2022-08-07T21:55:23;25.50;81.00
40756;DHT22;26461;45.630;9.418;2022-08-07T22:02:10;25.30;82.70
40756;DHT22;26461;45.630;9.418;2022-08-07T22:05:25;25.20;83.50
40756;DHT22;26461;45.630;9.418;2022-08-07T22:08:43;25.10;84.10
40756;DHT22;26461;45.630;9.418;2022-08-07T22:11:59;25.00;84.30
40756;DHT22;26461;45.630;9.418;2022-08-07T22:22:18;24.60;87.00
40756;DHT22;26461;45.630;9.418;2022-08-07T22:25:50;24.60;87.80
40756;DHT22;26461;45.630;9.418;2022-08-07T22:29:18;24.60;89.00
40756;DHT22;26461;45.630;9.418;2022-08-07T22:32:42;24.60;88.20
40756;DHT22;26461;45.630;9.418;2022-08-07T22:36:09;24.60;88.60
40756;DHT22;26461;45.630;9.418;2022-08-07T22:42:48;24.70;89.40
40756;DHT22;26461;45.630;9.418;2022-08-07T23:00:16;25.60;87.90
40756;DHT22;26461;45.630;9.418;2022-08-07T23:10:35;25.90;87.50
40756;DHT22;26461;45.630;9.418;2022-08-07T23:17:58;25.70;86.70
40756;DHT22;26461;45.630;9.418;2022-08-07T23:21:24;25.20;89.20
40756;DHT22;26461;45.630;9.418;2022-08-07T23:24:49;24.70;90.50
40756;DHT22;26461;45.630;9.418;2022-08-07T23:31:49;24.50;90.70
40756;DHT22;26461;45.630;9.418;2022-08-07T23:39:02;24.60;90.50
40756;DHT22;26461;45.630;9.418;2022-08-07T23:53:02;25.00;90.50
40756;DHT22;26461;45.630;9.418;2022-08-07T23:56:24;25.00;90.40
